createdAt,value
2022-10-02T00:01:18.795Z,3.60
2022-10-02T00:03:46.030Z,3.42
2022-10-02T00:06:23.247Z,3.33
2022-10-02T00:08:56.964Z,6.10
2022-10-02T00:11:29.718Z,4.10
2022-10-02T00:14:03.066Z,3.80
2022-10-02T00:16:36.314Z,3.90
2022-10-02T00:19:04.038Z,3.58
2022-10-02T00:21:39.268Z,4.05
2022-10-02T00:24:11.676Z,3.17
2022-10-02T00:26:51.082Z,3.60
2022-10-02T00:29:43.301Z,3.70
2022-10-02T00:32:20.137Z,3.10
2022-10-02T00:35:17.401Z,3.13
2022-10-02T00:37:55.381Z,3.10
2022-10-02T00:40:21.699Z,3.17
2022-10-02T00:43:05.042Z,3.50
2022-10-02T00:45:40.365Z,3.20
2022-10-02T00:48:45.830Z,3.45
2022-10-02T00:51:30.792Z,3.10
2022-10-02T00:54:34.497Z,2.80
2022-10-02T00:57:12.754Z,3.17
2022-10-02T00:59:51.351Z,3.22
2022-10-02T01:02:26.750Z,3.53
2022-10-02T01:04:54.403Z,3.37
2022-10-02T01:07:21.635Z,3.90
2022-10-02T01:09:48.321Z,4.22
2022-10-02T01:12:14.954Z,3.30
2022-10-02T01:14:41.933Z,3.50
2022-10-02T01:17:29.482Z,3.07
2022-10-02T01:19:59.365Z,3.17
2022-10-02T01:22:45.594Z,3.45
2022-10-02T01:25:12.582Z,2.78
2022-10-02T01:27:39.604Z,2.65
2022-10-02T01:30:13.892Z,2.47
2022-10-02T01:32:45.567Z,2.42
2022-10-02T01:35:12.170Z,2.70
2022-10-02T01:37:42.739Z,2.97
2022-10-02T01:40:22.300Z,3.55
2022-10-02T01:42:48.947Z,3.17
2022-10-02T01:45:15.388Z,3.50
2022-10-02T01:48:01.196Z,3.92
2022-10-02T01:50:55.145Z,3.33
2022-10-02T01:53:32.485Z,2.85
2022-10-02T01:56:16.520Z,3.17
2022-10-02T01:59:15.238Z,3.90
2022-10-02T02:02:11.194Z,3.10
2022-10-02T02:04:48.230Z,2.97
2022-10-02T02:07:25.878Z,2.90
2022-10-02T02:10:02.322Z,3.20
2022-10-02T02:12:37.245Z,3.45
2022-10-02T02:15:36.351Z,2.92
2022-10-02T02:18:28.721Z,2.70
2022-10-02T02:20:59.630Z,3.05
2022-10-02T02:23:31.016Z,3.00
2022-10-02T02:26:02.907Z,2.70
2022-10-02T02:28:32.603Z,3.38
2022-10-02T02:31:02.026Z,3.05
2022-10-02T02:33:37.208Z,3.13
2022-10-02T02:36:11.032Z,2.70
2022-10-02T02:38:42.716Z,2.70
2022-10-02T02:41:14.137Z,3.00
2022-10-02T02:44:20.465Z,2.80
2022-10-02T02:47:06.810Z,2.60
2022-10-02T02:50:02.940Z,3.50
2022-10-02T02:52:40.154Z,2.83
2022-10-02T02:55:12.424Z,3.58
2022-10-02T02:57:53.343Z,3.45
2022-10-02T03:00:20.137Z,3.22
2022-10-02T03:02:46.628Z,3.03
2022-10-02T03:05:15.756Z,2.90
2022-10-02T03:08:06.838Z,3.00
2022-10-02T03:10:39.133Z,2.83
2022-10-02T03:13:23.464Z,3.05
2022-10-02T03:16:11.790Z,3.13
2022-10-02T03:18:50.249Z,3.05
2022-10-02T03:21:34.668Z,3.10
2022-10-02T03:24:28.710Z,3.17
2022-10-02T03:27:02.413Z,2.80
2022-10-02T03:29:34.852Z,2.97
2022-10-02T03:32:03.210Z,3.67
2022-10-02T03:34:32.785Z,3.83
2022-10-02T03:37:00.723Z,4.75
2022-10-02T03:39:27.254Z,4.32
2022-10-02T03:41:54.451Z,3.57
2022-10-02T03:44:20.982Z,3.20
2022-10-02T03:46:47.453Z,3.40
2022-10-02T03:49:13.919Z,3.95
2022-10-02T03:51:40.364Z,3.30
2022-10-02T03:54:19.989Z,4.27
2022-10-02T03:57:03.387Z,3.75
2022-10-02T03:59:44.666Z,3.53
2022-10-02T04:02:32.677Z,4.32
2022-10-02T04:05:17.191Z,2.75
2022-10-02T04:07:51.699Z,2.57
2022-10-02T04:10:30.764Z,3.15
2022-10-02T04:13:10.064Z,2.47
2022-10-02T04:15:51.616Z,3.17
2022-10-02T04:18:24.944Z,2.47
2022-10-02T04:20:58.264Z,3.40
2022-10-02T04:23:32.992Z,2.72
2022-10-02T04:26:28.034Z,3.22
2022-10-02T04:28:59.940Z,6.55
2022-10-02T04:31:28.498Z,6.72
2022-10-02T04:34:02.728Z,5.60
2022-10-02T04:36:52.102Z,4.70
2022-10-02T04:39:36.749Z,4.30
2022-10-02T04:42:32.391Z,3.60
2022-10-02T04:45:01.900Z,4.10
2022-10-02T04:47:47.342Z,3.63
2022-10-02T04:50:25.064Z,3.20
2022-10-02T04:53:39.128Z,3.47
2022-10-02T04:56:23.877Z,3.15
2022-10-02T04:59:23.929Z,2.90
2022-10-02T05:02:09.411Z,2.73
2022-10-02T05:04:38.541Z,3.22
2022-10-02T05:07:37.853Z,2.70
2022-10-02T05:10:41.084Z,3.90
2022-10-02T05:13:32.342Z,3.30
2022-10-02T05:16:09.247Z,4.03
2022-10-02T05:18:44.398Z,3.50
2022-10-02T05:21:35.423Z,3.08
2022-10-02T05:24:27.822Z,2.60
2022-10-02T05:27:41.877Z,2.72
2022-10-02T05:30:12.304Z,2.87
2022-10-02T05:32:55.048Z,2.95
2022-10-02T05:35:31.910Z,3.10
2022-10-02T05:38:22.514Z,2.88
2022-10-02T05:41:12.480Z,3.22
2022-10-02T05:44:03.099Z,3.10
2022-10-02T05:46:35.562Z,3.30
2022-10-02T05:49:33.688Z,3.03
2022-10-02T05:52:18.866Z,3.22
2022-10-02T05:54:55.193Z,2.95
2022-10-02T05:57:44.943Z,3.27
2022-10-02T06:00:30.078Z,3.40
2022-10-02T06:03:17.951Z,3.60
2022-10-02T06:06:11.073Z,3.60
2022-10-02T06:09:03.489Z,3.90
2022-10-02T06:11:49.895Z,3.40
2022-10-02T06:14:52.517Z,3.33
2022-10-02T06:17:38.639Z,4.05
2022-10-02T06:20:32.984Z,5.65
2022-10-02T06:23:10.084Z,4.50
2022-10-02T06:25:44.936Z,3.53
2022-10-02T06:28:19.253Z,3.35
2022-10-02T06:30:58.934Z,3.85
2022-10-02T06:33:28.210Z,3.25
2022-10-02T06:36:08.868Z,2.95
2022-10-02T06:38:35.485Z,3.23
2022-10-02T06:41:13.872Z,2.50
2022-10-02T06:43:54.077Z,3.80
2022-10-02T06:46:31.464Z,2.60
2022-10-02T06:49:09.627Z,2.50
2022-10-02T06:51:48.141Z,3.27
2022-10-02T06:54:23.558Z,3.03
2022-10-02T06:57:07.067Z,2.65
2022-10-02T06:59:48.372Z,3.20
2022-10-02T07:02:17.756Z,2.72
2022-10-02T07:04:47.058Z,3.53
2022-10-02T07:07:35.218Z,4.78
2022-10-02T07:10:16.320Z,5.55
2022-10-02T07:13:05.367Z,3.63
2022-10-02T07:15:47.628Z,2.80
2022-10-02T07:18:22.828Z,2.70
2022-10-02T07:21:07.811Z,3.17
2022-10-02T07:23:47.380Z,3.20
2022-10-02T07:26:27.624Z,3.17
2022-10-02T07:29:13.972Z,2.63
2022-10-02T07:31:57.360Z,2.67
2022-10-02T07:34:29.460Z,2.70
2022-10-02T07:37:17.982Z,2.17
2022-10-02T07:40:06.507Z,1.98
2022-10-02T07:42:41.564Z,2.20
2022-10-02T07:45:27.843Z,1.77
2022-10-02T07:48:15.739Z,2.00
2022-10-02T07:50:51.054Z,2.00
2022-10-02T07:53:48.813Z,1.90
2022-10-02T07:56:20.696Z,2.28
2022-10-02T07:58:56.283Z,4.03
2022-10-02T08:01:32.209Z,2.00
2022-10-02T08:04:08.943Z,2.67
2022-10-02T08:06:36.645Z,2.58
2022-10-02T08:09:11.889Z,3.70
2022-10-02T08:11:49.629Z,4.17
2022-10-02T08:14:35.401Z,5.78
2022-10-02T08:17:10.634Z,2.53
2022-10-02T08:19:43.259Z,2.17
2022-10-02T08:22:33.736Z,2.17
2022-10-02T08:25:08.117Z,2.60
2022-10-02T08:27:49.240Z,2.15
2022-10-02T08:30:15.879Z,2.15
2022-10-02T08:32:43.838Z,1.80
2022-10-02T08:35:17.447Z,2.63
2022-10-02T08:38:21.733Z,2.00
2022-10-02T08:41:12.947Z,2.58
2022-10-02T08:43:45.503Z,2.67
2022-10-02T08:47:01.125Z,1.83
2022-10-02T08:50:05.017Z,2.63
2022-10-02T08:52:54.525Z,2.73
2022-10-02T08:56:03.082Z,1.85
2022-10-02T08:58:44.863Z,1.40
2022-10-02T09:01:26.540Z,1.90
2022-10-02T09:04:31.234Z,1.80
2022-10-02T09:07:06.305Z,1.30
2022-10-02T09:10:01.730Z,1.40
2022-10-02T09:12:46.057Z,1.75
2022-10-02T09:15:15.962Z,1.45
2022-10-02T09:17:47.771Z,1.42
2022-10-02T09:20:36.072Z,2.70
2022-10-02T09:23:40.734Z,1.48
2022-10-02T09:26:13.139Z,1.60
2022-10-02T09:28:58.108Z,1.90
2022-10-02T09:31:33.383Z,1.83
2022-10-02T09:34:36.837Z,1.93
2022-10-02T09:37:38.200Z,3.40
2022-10-02T09:40:53.115Z,1.90
2022-10-02T09:44:08.166Z,3.45
2022-10-02T09:47:11.681Z,3.28
2022-10-02T09:50:02.578Z,2.93
2022-10-02T09:52:42.034Z,4.00
2022-10-02T09:58:47.198Z,6.30
2022-10-02T10:01:45.236Z,1.30
2022-10-02T10:05:00.829Z,4.00
2022-10-02T10:07:58.797Z,1.80
2022-10-02T10:10:49.365Z,1.60
2022-10-02T10:13:37.402Z,2.30
2022-10-02T10:16:45.733Z,1.30
2022-10-02T10:19:22.164Z,1.30
2022-10-02T10:22:17.285Z,1.38
2022-10-02T10:25:05.195Z,1.85
2022-10-02T10:27:50.270Z,1.50
2022-10-02T10:30:39.578Z,1.23
2022-10-02T10:33:41.219Z,2.20
2022-10-02T10:36:50.812Z,2.10
2022-10-02T10:39:39.249Z,2.33
2022-10-02T10:42:24.051Z,1.42
2022-10-02T10:45:11.235Z,1.60
2022-10-02T10:47:59.445Z,2.27
2022-10-02T10:51:00.394Z,2.22
2022-10-02T10:53:28.098Z,1.75
2022-10-02T10:56:01.942Z,1.92
2022-10-02T10:58:52.761Z,1.85
2022-10-02T11:02:00.598Z,2.03
2022-10-02T11:04:52.110Z,11.43
2022-10-02T11:07:59.107Z,1.10
2022-10-02T11:10:32.001Z,1.30
2022-10-02T11:13:41.597Z,1.40
2022-10-02T11:16:23.293Z,1.60
2022-10-02T11:19:29.805Z,10.65
2022-10-02T11:22:14.709Z,2.67
2022-10-02T11:25:00.786Z,18.15
2022-10-02T11:27:39.857Z,16.92
2022-10-02T11:30:21.342Z,14.27
2022-10-02T11:33:14.470Z,10.13
2022-10-02T11:36:22.944Z,3.65
2022-10-02T11:39:06.685Z,6.78
2022-10-02T11:42:12.963Z,4.78
2022-10-02T11:44:51.366Z,2.43
2022-10-02T11:47:42.244Z,5.53
2022-10-02T11:50:23.960Z,2.03
2022-10-02T11:53:07.551Z,2.33
2022-10-02T11:55:43.063Z,2.20
2022-10-02T11:58:45.327Z,2.27
2022-10-02T12:01:22.338Z,3.13
2022-10-02T12:04:05.203Z,1.60
2022-10-02T12:06:50.515Z,1.85
2022-10-02T12:09:40.360Z,2.10
2022-10-02T12:12:25.751Z,3.20
2022-10-02T12:15:23.776Z,5.95
2022-10-02T12:18:10.749Z,1.50
2022-10-02T12:21:14.561Z,1.10
2022-10-02T12:24:31.840Z,1.20
2022-10-02T12:27:42.796Z,1.20
2022-10-02T12:30:18.710Z,1.20
2022-10-02T12:32:53.861Z,1.20
2022-10-02T12:35:38.537Z,2.10
2022-10-02T12:38:10.910Z,1.85
2022-10-02T12:40:45.198Z,1.97
2022-10-02T12:43:27.596Z,1.60
2022-10-02T12:46:29.002Z,1.85
2022-10-02T12:49:16.709Z,2.00
2022-10-02T12:52:15.969Z,1.23
2022-10-02T12:54:57.144Z,3.90
2022-10-02T12:57:49.205Z,5.70
2022-10-02T13:00:20.762Z,2.00
2022-10-02T13:03:41.379Z,1.50
2022-10-02T13:06:26.412Z,1.00
2022-10-02T13:09:06.083Z,1.37
2022-10-02T13:11:41.553Z,2.03
2022-10-02T13:14:43.562Z,1.90
2022-10-02T13:17:22.871Z,1.40
2022-10-02T13:20:17.060Z,1.30
2022-10-02T13:23:02.823Z,1.53
2022-10-02T13:26:08.481Z,1.52
2022-10-02T13:28:56.588Z,5.93
2022-10-02T13:31:37.045Z,3.85
2022-10-02T13:34:15.602Z,3.17
2022-10-02T13:36:53.213Z,2.23
2022-10-02T13:39:19.536Z,1.75
2022-10-02T13:42:18.112Z,1.55
2022-10-02T13:44:54.973Z,2.10
2022-10-02T13:47:31.713Z,3.03
2022-10-02T13:50:23.541Z,2.10
2022-10-02T13:52:52.679Z,2.75
2022-10-02T13:55:24.204Z,3.80
2022-10-02T13:58:09.396Z,1.88
2022-10-02T14:00:38.632Z,2.10
2022-10-02T14:03:22.994Z,1.80
2022-10-02T14:05:58.262Z,1.75
2022-10-02T14:09:02.544Z,2.17
2022-10-02T14:11:56.406Z,2.15
2022-10-02T14:14:29.649Z,2.00
2022-10-02T14:17:23.303Z,2.30
2022-10-02T14:20:19.043Z,1.80
2022-10-02T14:22:48.531Z,2.50
2022-10-02T14:25:33.105Z,3.03
2022-10-02T14:28:27.581Z,3.22
2022-10-02T14:31:06.107Z,2.20
2022-10-02T14:33:50.784Z,2.15
2022-10-02T14:36:55.685Z,2.80
2022-10-02T14:39:28.460Z,2.63
2022-10-02T14:42:23.984Z,2.15
2022-10-02T14:45:08.612Z,1.90
2022-10-02T14:47:42.283Z,4.63
2022-10-02T14:50:36.380Z,2.88
2022-10-02T14:53:19.724Z,2.40
2022-10-02T14:55:51.982Z,2.47
2022-10-02T14:58:21.888Z,2.10
2022-10-02T15:01:06.545Z,3.28
2022-10-02T15:03:54.435Z,2.95
2022-10-02T15:06:32.942Z,2.47
2022-10-02T15:09:10.223Z,4.80
2022-10-02T15:11:36.899Z,3.17
2022-10-02T15:14:12.698Z,3.05
2022-10-02T15:17:06.843Z,2.45
2022-10-02T15:19:49.123Z,2.88
2022-10-02T15:22:27.569Z,3.53
2022-10-02T15:24:58.623Z,2.70
2022-10-02T15:27:46.745Z,2.70
2022-10-02T15:30:23.342Z,3.30
2022-10-02T15:33:08.831Z,2.90
2022-10-02T15:35:56.148Z,2.60
2022-10-02T15:38:25.476Z,2.50
2022-10-02T15:41:32.940Z,2.90
2022-10-02T15:44:17.941Z,4.80
2022-10-02T15:47:09.109Z,3.80
2022-10-02T15:50:02.362Z,4.55
2022-10-02T15:52:49.879Z,3.70
2022-10-02T15:55:35.099Z,3.60
2022-10-02T15:58:08.272Z,3.25
2022-10-02T16:01:08.920Z,3.50
2022-10-02T16:03:49.216Z,3.67
2022-10-02T16:06:24.684Z,6.10
2022-10-02T16:08:57.391Z,4.95
2022-10-02T16:11:55.337Z,5.63
2022-10-02T16:14:42.246Z,5.60
2022-10-02T16:17:18.653Z,6.07
2022-10-02T16:19:47.905Z,6.10
2022-10-02T16:23:01.785Z,7.60
2022-10-02T16:25:47.383Z,6.20
2022-10-02T16:28:18.721Z,6.70
2022-10-02T16:30:45.939Z,6.93
2022-10-02T16:33:15.533Z,7.37
2022-10-02T16:35:54.206Z,14.32
2022-10-02T16:38:47.262Z,8.88
2022-10-02T16:41:37.237Z,7.25
2022-10-02T16:44:18.871Z,5.45
2022-10-02T16:47:04.237Z,8.73
2022-10-02T16:50:04.910Z,7.45
2022-10-02T16:52:37.200Z,6.35
2022-10-02T16:55:31.279Z,6.95
2022-10-02T16:58:04.786Z,4.97
2022-10-02T17:00:49.100Z,4.87
2022-10-02T17:03:38.675Z,4.07
2022-10-02T17:06:27.013Z,4.35
2022-10-02T17:09:18.895Z,4.70
2022-10-02T17:12:04.175Z,5.00
2022-10-02T17:14:51.841Z,5.13
2022-10-02T17:17:44.259Z,4.53
2022-10-02T17:20:23.819Z,6.03
2022-10-02T17:22:55.286Z,5.57
2022-10-02T17:25:41.827Z,5.72
2022-10-02T17:28:30.222Z,6.70
2022-10-02T17:31:16.673Z,5.53
2022-10-02T17:33:52.244Z,6.38
2022-10-02T17:36:34.895Z,6.38
2022-10-02T17:39:39.051Z,7.57
2022-10-02T17:42:32.644Z,7.10
2022-10-02T17:45:28.312Z,7.55
2022-10-02T17:48:05.758Z,7.38
2022-10-02T17:50:34.882Z,10.80
2022-10-02T17:53:22.996Z,7.82
2022-10-02T17:56:29.672Z,6.03
2022-10-02T17:59:27.607Z,5.22
2022-10-02T18:02:03.699Z,30.58
2022-10-02T18:05:01.791Z,11.40
2022-10-02T18:07:53.746Z,5.90
2022-10-02T18:10:54.055Z,5.47
2022-10-02T18:13:31.486Z,7.18
2022-10-02T18:16:21.722Z,7.97
2022-10-02T18:19:16.054Z,7.10
2022-10-02T18:21:54.566Z,6.40
2022-10-02T18:24:51.992Z,6.67
2022-10-02T18:27:40.411Z,9.07
2022-10-02T18:30:20.107Z,11.55
2022-10-02T18:33:04.936Z,8.60
2022-10-02T18:35:41.012Z,8.43
2022-10-02T18:38:31.236Z,10.27
2022-10-02T18:41:16.241Z,8.35
2022-10-02T18:43:56.310Z,8.13
2022-10-02T18:46:38.055Z,6.35
2022-10-02T18:49:26.114Z,6.30
2022-10-02T18:52:24.886Z,15.07
2022-10-02T18:55:25.715Z,13.73
2022-10-02T18:58:17.443Z,6.70
2022-10-02T19:01:07.386Z,6.88
2022-10-02T19:03:55.847Z,6.55
2022-10-02T19:06:32.050Z,23.03
2022-10-02T19:09:07.474Z,21.85
2022-10-02T19:11:49.084Z,7.97
2022-10-02T19:14:25.836Z,6.60
2022-10-02T19:16:58.724Z,6.57
2022-10-02T19:19:27.839Z,6.90
2022-10-02T19:21:59.382Z,5.60
2022-10-02T19:24:31.687Z,7.15
2022-10-02T19:27:07.054Z,7.32
2022-10-02T19:29:41.513Z,7.13
2022-10-02T19:32:37.079Z,6.13
2022-10-02T19:35:17.910Z,5.82
2022-10-02T19:37:47.989Z,16.08
2022-10-02T19:40:18.160Z,11.55
2022-10-02T19:42:50.071Z,9.88
2022-10-02T19:45:27.732Z,6.97
2022-10-02T19:48:02.234Z,6.75
2022-10-02T19:50:40.291Z,7.53
2022-10-02T19:53:15.908Z,5.65
2022-10-02T19:55:43.951Z,6.35
2022-10-02T19:58:48.584Z,5.70
2022-10-02T20:01:20.655Z,5.93
2022-10-02T20:03:52.511Z,7.47
2022-10-02T20:06:23.688Z,7.13
2022-10-02T20:09:02.778Z,6.88
2022-10-02T20:11:33.859Z,6.13
2022-10-02T20:14:55.776Z,6.10
2022-10-02T20:17:22.852Z,6.85
2022-10-02T20:19:56.111Z,8.00
2022-10-02T20:22:45.269Z,8.20
2022-10-02T20:25:28.520Z,6.93
2022-10-02T20:28:17.440Z,6.57
2022-10-02T20:31:06.946Z,8.07
2022-10-02T20:33:50.410Z,7.60
2022-10-02T20:36:26.123Z,7.82
2022-10-02T20:39:00.120Z,7.93
2022-10-02T20:41:33.609Z,6.82
2022-10-02T20:44:07.147Z,8.25
2022-10-02T20:46:33.529Z,24.33
2022-10-02T20:49:31.178Z,70.32
2022-10-02T20:52:18.949Z,26.37
2022-10-02T20:54:59.506Z,11.50
2022-10-02T20:58:10.265Z,9.88
2022-10-02T21:01:04.645Z,8.00
2022-10-02T21:03:41.968Z,8.02
2022-10-02T21:06:27.777Z,7.37
2022-10-02T21:09:15.045Z,7.03
2022-10-02T21:11:58.029Z,26.70
2022-10-02T21:15:03.296Z,25.10
2022-10-02T21:17:57.551Z,12.32
2022-10-02T21:20:50.910Z,9.07
2022-10-02T21:23:45.291Z,9.25
2022-10-02T21:26:26.669Z,10.07
2022-10-02T21:29:15.749Z,10.10
2022-10-02T21:32:01.759Z,9.18
2022-10-02T21:35:06.131Z,9.40
2022-10-02T21:38:07.444Z,8.77
2022-10-02T21:40:52.142Z,7.40
2022-10-02T21:43:30.871Z,7.50
2022-10-02T21:46:26.994Z,5.82
2022-10-02T21:49:13.990Z,6.37
2022-10-02T21:52:09.774Z,6.90
2022-10-02T21:55:00.649Z,8.68
2022-10-02T21:57:48.573Z,8.60
2022-10-02T22:00:24.356Z,9.68
2022-10-02T22:03:27.595Z,9.33
2022-10-02T22:06:11.025Z,10.57
2022-10-02T22:09:12.631Z,11.45
2022-10-02T22:11:41.842Z,11.80
2022-10-02T22:14:19.150Z,10.68
2022-10-02T22:17:04.529Z,10.67
2022-10-02T22:19:47.386Z,10.05
2022-10-02T22:22:35.602Z,9.57
2022-10-02T22:25:47.191Z,9.30
2022-10-02T22:28:19.618Z,9.70
2022-10-02T22:30:55.329Z,9.47
2022-10-02T22:33:43.592Z,8.90
2022-10-02T22:36:34.849Z,9.75
2022-10-02T22:39:26.358Z,10.05
2022-10-02T22:42:26.637Z,9.48
2022-10-02T22:45:00.516Z,9.73
2022-10-02T22:47:37.599Z,10.05
2022-10-02T22:50:20.441Z,9.93
2022-10-02T22:52:53.250Z,10.50
2022-10-02T22:55:32.194Z,9.73
2022-10-02T22:58:12.305Z,9.70
2022-10-02T23:01:20.249Z,10.38
2022-10-02T23:04:18.860Z,10.05
2022-10-02T23:07:20.355Z,9.40
2022-10-02T23:10:01.763Z,10.10
2022-10-02T23:12:39.391Z,10.20
2022-10-02T23:16:04.248Z,10.18
2022-10-02T23:18:40.729Z,10.25
2022-10-02T23:21:12.978Z,10.05
2022-10-02T23:24:05.912Z,9.05
2022-10-02T23:26:51.408Z,8.27
2022-10-02T23:29:45.687Z,7.40
2022-10-02T23:32:31.679Z,7.07
2022-10-02T23:35:14.690Z,7.22
2022-10-02T23:38:19.578Z,5.82
2022-10-02T23:41:17.010Z,5.50
2022-10-02T23:44:19.167Z,5.20
2022-10-02T23:46:48.832Z,4.72
2022-10-02T23:49:21.623Z,5.07
2022-10-02T23:52:21.941Z,5.22
2022-10-02T23:55:06.898Z,5.77
2022-10-02T23:57:45.110Z,6.93
